Time;durP1;ratioP1;P1;durP2;ratioP2;P2;SDS_P1;SDS_P2;PMS_P1;PMS_P2;Temp;Humidity;BMP_temperature;BMP_pressure;BME280_temperature;BME280_humidity;BME280_pressure;Samples;Min_cycle;Max_cycle;Signal;HPM_P1;HPM_P2
2022/03/04 00:00:43;;;;;;;8.32;4.93;;;;;;;1.72;72.24;101655.34;5005705;28;20100;-71
2022/03/04 00:03:11;;;;;;;12.32;4.82;;;;;;;1.82;72.29;101656.78;5007259;28;20053;-72
2022/03/04 00:05:38;;;;;;;10.27;5.05;;;;;;;1.74;72.74;101663.91;5006554;28;20046;-73
2022/03/04 00:08:05;;;;;;;7.43;4.63;;;;;;;1.64;73.34;101665.06;5003606;28;20092;-72
2022/03/04 00:10:31;;;;;;;5.00;3.88;;;;;;;1.58;73.29;101663.53;5005688;28;20323;-70
2022/03/04 00:13:01;;;;;;;13.63;4.97;;;;;;;1.59;74.21;101661.78;5004208;28;20400;-71
2022/03/04 00:15:28;;;;;;;6.07;3.67;;;;;;;1.64;72.93;101649.53;5003326;28;20042;-73
2022/03/04 00:17:57;;;;;;;8.38;3.50;;;;;;;1.53;73.52;101660.22;5004523;28;20052;-72
2022/03/04 00:20:24;;;;;;;5.85;3.75;;;;;;;1.34;74.50;101659.88;5006958;28;20051;-70
2022/03/04 00:22:50;;;;;;;7.32;4.32;;;;;;;1.34;74.50;101665.06;5002577;28;20132;-74
2022/03/04 00:25:18;;;;;;;13.18;5.28;;;;;;;1.26;75.29;101667.00;5001248;28;20081;-71
2022/03/04 00:27:45;;;;;;;11.95;5.63;;;;;;;1.06;75.67;101665.84;5003350;28;20188;-72
2022/03/04 00:30:13;;;;;;;7.28;4.47;;;;;;;0.90;76.89;101664.53;5007873;28;20049;-73
2022/03/04 00:32:40;;;;;;;9.05;3.83;;;;;;;1.02;76.76;101674.56;5008912;28;20061;-72
2022/03/04 00:35:09;;;;;;;7.25;5.38;;;;;;;0.91;76.46;101674.00;5007927;28;20049;-71
2022/03/04 00:37:35;;;;;;;5.13;4.10;;;;;;;0.77;77.43;101672.63;5014789;28;20057;-72
2022/03/04 00:40:03;;;;;;;6.55;4.22;;;;;;;1.00;76.65;101676.34;5005563;28;20053;-70
2022/03/04 00:42:30;;;;;;;7.60;4.50;;;;;;;1.01;76.36;101676.28;5013839;28;20052;-73
2022/03/04 00:44:56;;;;;;;11.32;5.05;;;;;;;1.02;76.63;101679.75;5027979;28;20048;-72
2022/03/04 00:47:23;;;;;;;7.30;4.38;;;;;;;0.98;76.46;101683.28;5028700;28;20063;-72
2022/03/04 00:49:49;;;;;;;5.75;4.13;;;;;;;0.98;76.82;101678.13;5025642;28;20044;-71
2022/03/04 00:52:18;;;;;;;8.75;5.15;;;;;;;0.94;76.57;101684.28;5012034;28;20067;-73
2022/03/04 00:54:44;;;;;;;9.70;4.55;;;;;;;0.99;76.72;101685.00;5029186;28;20102;-71
2022/03/04 00:57:11;;;;;;;6.88;4.90;;;;;;;0.86;76.86;101686.19;5033385;28;20051;-71
2022/03/04 00:59:37;;;;;;;8.25;3.92;;;;;;;0.91;76.81;101681.75;5015767;28;20041;-72
2022/03/04 01:02:04;;;;;;;8.77;4.53;;;;;;;0.99;76.44;101696.16;5029931;28;20057;-72
2022/03/04 01:04:31;;;;;;;8.05;3.30;;;;;;;0.81;76.78;101695.78;5033494;28;20049;-72
2022/03/04 01:06:57;;;;;;;16.63;3.47;;;;;;;0.76;77.21;101686.44;5027462;28;20040;-71
2022/03/04 01:09:25;;;;;;;8.63;4.53;;;;;;;0.75;77.21;101685.59;5032580;28;20095;-75
2022/03/04 01:11:52;;;;;;;14.90;4.88;;;;;;;0.57;78.06;101695.53;5025037;28;20534;-73
2022/03/04 01:14:22;;;;;;;9.00;6.00;;;;;;;0.46;78.26;101693.19;5027146;28;20056;-70
2022/03/04 01:16:48;;;;;;;6.35;3.72;;;;;;;0.48;78.72;101696.59;5028671;28;20049;-72
2022/03/04 01:19:15;;;;;;;7.85;3.45;;;;;;;0.65;78.30;101698.78;5032048;28;20132;-72
2022/03/04 01:21:44;;;;;;;7.35;4.88;;;;;;;0.64;77.74;101703.09;5026974;28;20095;-72
2022/03/04 01:24:10;;;;;;;6.90;4.53;;;;;;;0.69;78.63;101705.56;5027969;28;20076;-70
2022/03/04 01:26:39;;;;;;;6.70;3.42;;;;;;;0.83;77.83;101699.19;5028516;28;20106;-71
2022/03/04 01:29:06;;;;;;;11.15;4.70;;;;;;;1.04;76.92;101703.81;5033907;28;20511;-72
2022/03/04 01:31:32;;;;;;;5.10;3.60;;;;;;;1.13;76.52;101693.25;5035583;28;20059;-72
2022/03/04 01:33:59;;;;;;;6.45;4.55;;;;;;;1.34;74.90;101692.69;5039775;28;20167;-71
2022/03/04 01:36:27;;;;;;;5.25;2.83;;;;;;;1.23;75.15;101689.53;5034640;28;20045;-73
2022/03/04 01:38:56;;;;;;;8.25;4.78;;;;;;;1.11;75.34;101689.84;5029485;28;20037;-72
2022/03/04 01:41:22;;;;;;;5.70;3.75;;;;;;;1.07;76.01;101693.41;5026226;28;20044;-72
2022/03/04 01:43:50;;;;;;;5.38;4.03;;;;;;;0.76;76.67;101686.44;5026732;28;20128;-71
2022/03/04 01:46:18;;;;;;;4.93;3.22;;;;;;;0.96;76.67;101695.41;5034794;28;20127;-71
2022/03/04 01:48:46;;;;;;;12.93;4.93;;;;;;;0.96;76.65;101691.09;5030427;28;20041;-74
2022/03/04 01:51:13;;;;;;;7.10;4.47;;;;;;;0.95;76.63;101693.69;5025620;28;20050;-71
2022/03/04 01:53:40;;;;;;;6.80;5.32;;;;;;;0.90;76.58;101701.56;5028474;28;20055;-70
2022/03/04 01:56:07;;;;;;;7.25;4.10;;;;;;;0.80;77.52;101694.09;5027029;28;20060;-71
2022/03/04 01:58:34;;;;;;;8.30;4.32;;;;;;;0.83;77.63;101704.38;5025706;28;20048;-73
2022/03/04 02:01:02;;;;;;;10.90;5.25;;;;;;;0.79;77.86;101688.06;5025225;28;20133;-70
2022/03/04 02:03:28;;;;;;;6.78;3.92;;;;;;;0.65;78.38;101691.88;5029030;28;20045;-70
2022/03/04 02:05:55;;;;;;;6.47;4.90;;;;;;;0.43;79.65;101692.41;5027516;28;20051;-71
2022/03/04 02:08:22;;;;;;;4.80;3.78;;;;;;;0.54;80.33;101690.44;5028195;28;20037;-72
2022/03/04 02:10:49;;;;;;;8.82;5.35;;;;;;;0.33;79.93;101683.19;5007384;28;20046;-72
2022/03/04 02:13:16;;;;;;;7.65;5.15;;;;;;;0.25;80.86;101685.06;5031025;28;20056;-71
2022/03/04 02:15:44;;;;;;;6.20;5.57;;;;;;;0.22;81.22;101686.00;5024811;28;20072;-70
2022/03/04 02:18:16;;;;;;;6.20;4.15;;;;;;;0.12;81.82;101683.66;5028402;28;20461;-71
2022/03/04 02:20:46;;;;;;;7.15;3.97;;;;;;;0.25;81.24;101678.19;5029929;28;20046;-71
2022/03/04 02:23:14;;;;;;;6.13;3.78;;;;;;;0.12;80.77;101686.22;5033387;28;20049;-72
2022/03/04 02:25:42;;;;;;;8.90;4.35;;;;;;;-0.11;82.24;101679.84;5040704;28;20128;-72
2022/03/04 02:28:08;;;;;;;8.85;5.75;;;;;;;-0.18;82.61;101681.72;5051111;28;20041;-70
2022/03/04 02:30:36;;;;;;;6.35;4.38;;;;;;;-0.16;83.09;101679.94;5049633;28;20034;-72
2022/03/04 02:33:04;;;;;;;10.00;5.60;;;;;;;-0.26;82.85;101677.59;5035470;28;20068;-71
2022/03/04 02:35:31;;;;;;;11.43;4.95;;;;;;;-0.24;83.41;101681.84;5026204;28;20045;-71
2022/03/04 02:37:57;;;;;;;6.05;4.97;;;;;;;-0.41;83.85;101675.31;5024354;28;20060;-71
2022/03/04 02:40:26;;;;;;;5.32;4.38;;;;;;;-0.35;83.84;101682.94;5020081;28;20855;-70
2022/03/04 02:42:53;;;;;;;7.57;4.15;;;;;;;-0.27;83.62;101683.63;5026653;28;20274;-71
2022/03/04 02:45:20;;;;;;;8.68;4.57;;;;;;;-0.20;83.77;101677.47;5020728;28;20049;-71
2022/03/04 02:47:46;;;;;;;4.40;3.38;;;;;;;-0.30;83.41;101676.81;5023377;28;20553;-71
2022/03/04 02:50:14;;;;;;;10.10;5.57;;;;;;;-0.32;83.97;101673.41;5022445;28;20150;-70
2022/03/04 02:52:41;;;;;;;5.68;3.60;;;;;;;-0.20;83.68;101680.91;5025283;28;20045;-71
2022/03/04 02:55:11;;;;;;;11.20;5.38;;;;;;;-0.31;83.73;101674.25;5017294;28;20139;-70
2022/03/04 02:57:40;;;;;;;7.32;6.15;;;;;;;-0.16;83.63;101667.03;5011013;28;20098;-72
2022/03/04 03:00:07;;;;;;;10.60;4.80;;;;;;;-0.24;83.79;101675.84;5026835;28;20049;-69
2022/03/04 03:02:33;;;;;;;9.30;4.60;;;;;;;-0.19;83.30;101674.00;5022712;28;20052;-72
2022/03/04 03:05:02;;;;;;;9.90;3.40;;;;;;;-0.24;83.08;101665.50;5028729;28;20211;-72
2022/03/04 03:07:30;;;;;;;6.45;3.80;;;;;;;-0.39;83.97;101677.00;5017373;28;20040;-72
2022/03/04 03:09:56;;;;;;;9.90;5.55;;;;;;;-0.37;84.39;101680.41;5022634;28;20049;-71
2022/03/04 03:12:23;;;;;;;7.78;3.72;;;;;;;-0.44;84.93;101675.38;5022144;28;20057;-71
2022/03/04 03:14:51;;;;;;;4.82;3.13;;;;;;;-0.33;84.17;101676.84;5027603;28;20048;-71
2022/03/04 03:17:18;;;;;;;7.18;4.95;;;;;;;-0.34;83.75;101682.94;5027108;28;20048;-72
2022/03/04 03:19:45;;;;;;;6.93;4.05;;;;;;;-0.31;83.20;101679.44;5026516;28;20071;-71
2022/03/04 03:22:14;;;;;;;7.93;3.80;;;;;;;-0.36;82.91;101684.69;5026356;28;20047;-69
2022/03/04 03:24:41;;;;;;;7.13;4.65;;;;;;;-0.46;83.51;101692.66;5028257;28;20064;-69
2022/03/04 03:27:08;;;;;;;6.05;4.18;;;;;;;-0.36;83.64;101676.94;5032825;28;20132;-71
2022/03/04 03:29:34;;;;;;;9.13;4.05;;;;;;;-0.46;84.40;101696.06;5023029;28;20070;-69
2022/03/04 03:32:03;;;;;;;6.47;4.50;;;;;;;-0.43;84.00;101683.09;5027296;28;20041;-72
2022/03/04 03:34:30;;;;;;;8.68;4.60;;;;;;;-0.45;84.25;101681.44;5025378;28;20053;-69
2022/03/04 03:36:56;;;;;;;7.20;3.78;;;;;;;-0.48;84.15;101684.91;5026263;28;20124;-70
2022/03/04 03:39:23;;;;;;;20.10;4.88;;;;;;;-0.34;84.31;101690.66;5028843;28;20049;-69
2022/03/04 03:41:49;;;;;;;6.25;4.03;;;;;;;-0.35;83.85;101691.53;5032342;28;20523;-72
2022/03/04 03:44:16;;;;;;;6.28;3.83;;;;;;;-0.39;83.75;101691.63;5038781;28;20049;-71
2022/03/04 03:46:42;;;;;;;6.93;4.63;;;;;;;-0.51;84.06;101697.03;5039837;28;20253;-71
2022/03/04 03:49:11;;;;;;;9.27;4.40;;;;;;;-0.59;84.64;101696.31;5011201;28;20084;-72
2022/03/04 03:51:37;;;;;;;12.95;6.00;;;;;;;-0.63;85.59;101692.94;5028596;28;20053;-71
2022/03/04 03:54:04;;;;;;;8.10;4.38;;;;;;;-0.47;84.91;101693.53;5022953;28;20078;-72
2022/03/04 03:56:31;;;;;;;22.17;4.32;;;;;;;-0.52;85.07;101691.03;5024149;28;20052;-71
2022/03/04 03:58:57;;;;;;;6.55;5.22;;;;;;;-0.40;84.29;101687.34;5024763;28;20041;-72
2022/03/04 04:01:24;;;;;;;9.75;4.78;;;;;;;-0.35;84.43;101693.25;5026366;28;20192;-71
2022/03/04 04:03:51;;;;;;;6.07;4.57;;;;;;;-0.42;84.15;101694.25;5029803;28;20042;-72
2022/03/04 04:06:19;;;;;;;18.10;4.05;;;;;;;-0.51;83.97;101697.88;5029392;28;20050;-70
2022/03/04 04:08:46;;;;;;;5.72;3.30;;;;;;;-0.56;85.19;101694.53;5029603;28;20373;-72
2022/03/04 04:11:13;;;;;;;5.55;4.15;;;;;;;-0.65;85.05;101693.84;5026934;28;20055;-71
2022/03/04 04:13:39;;;;;;;8.50;4.38;;;;;;;-0.68;85.42;101696.47;5030063;28;20049;-72
2022/03/04 04:16:06;;;;;;;8.50;4.88;;;;;;;-0.76;85.57;101708.66;5031373;28;20045;-72
2022/03/04 04:18:32;;;;;;;6.35;3.13;;;;;;;-0.58;85.20;101708.34;5031422;28;20056;-70
2022/03/04 04:20:59;;;;;;;7.93;3.28;;;;;;;-0.74;85.25;101702.59;5028868;28;20132;-71
2022/03/04 04:23:27;;;;;;;7.50;4.55;;;;;;;-0.63;85.66;101717.91;5030757;28;20055;-71
2022/03/04 04:25:53;;;;;;;8.23;5.45;;;;;;;-0.70;85.53;101722.31;5033586;28;20037;-72
2022/03/04 04:28:21;;;;;;;5.28;4.38;;;;;;;-0.78;85.51;101713.88;5027450;28;20041;-71
2022/03/04 04:30:48;;;;;;;15.77;4.13;;;;;;;-0.63;85.76;101716.16;5033075;28;20048;-73
2022/03/04 04:33:15;;;;;;;10.60;4.05;;;;;;;-0.45;84.70;101718.41;5025883;28;20099;-71
2022/03/04 04:35:41;;;;;;;5.60;3.20;;;;;;;-0.39;84.00;101723.44;5025502;28;20050;-71
2022/03/04 04:38:08;;;;;;;14.50;4.15;;;;;;;-0.50;84.76;101719.38;5028098;28;20103;-72
2022/03/04 04:40:37;;;;;;;9.82;5.00;;;;;;;-0.60;84.63;101723.00;5032751;28;20404;-75
2022/03/04 04:43:04;;;;;;;7.15;4.18;;;;;;;-0.50;85.25;101717.66;5024445;28;20065;-70
2022/03/04 04:45:31;;;;;;;8.25;5.32;;;;;;;-0.46;85.52;101715.88;5030704;28;20064;-70
2022/03/04 04:47:57;;;;;;;5.35;3.35;;;;;;;-0.33;84.61;101715.56;5033269;28;20120;-71
2022/03/04 04:50:24;;;;;;;6.20;2.92;;;;;;;-0.45;84.57;101712.41;5028915;28;20041;-71
2022/03/04 04:52:50;;;;;;;13.27;6.47;;;;;;;-0.36;84.97;101714.78;5032119;28;20472;-71
2022/03/04 04:55:17;;;;;;;5.85;4.20;;;;;;;-0.50;85.77;101720.25;5032329;28;20044;-72
2022/03/04 04:57:45;;;;;;;1.90;1.70;;;;;;;-0.49;85.26;101710.75;5018597;28;20079;-70
2022/03/04 05:00:17;;;;;;;4.57;3.08;;;;;;;-0.62;86.18;101710.13;5012385;28;20064;-72
2022/03/04 05:02:44;;;;;;;5.18;3.40;;;;;;;-0.67;86.38;101711.09;5026941;28;20099;-70
2022/03/04 05:05:11;;;;;;;11.50;5.60;;;;;;;-0.69;86.45;101705.09;5030345;28;20046;-70
2022/03/04 05:07:37;;;;;;;7.70;5.25;;;;;;;-0.70;86.31;101711.16;5044929;28;20041;-72
2022/03/04 05:10:05;;;;;;;7.85;4.45;;;;;;;-0.61;86.61;101716.13;5030037;28;20040;-71
2022/03/04 05:12:32;;;;;;;11.32;6.05;;;;;;;-0.60;87.36;101716.13;5038124;28;20155;-72
2022/03/04 05:15:00;;;;;;;14.25;3.58;;;;;;;-0.69;86.71;101729.19;5030983;28;20487;-70
2022/03/04 05:17:27;;;;;;;7.75;3.38;;;;;;;-0.73;87.06;101731.84;5028632;28;20045;-72
2022/03/04 05:22:33;;;;;;;9.48;3.42;;;;;;;-0.78;87.66;101734.50;5106715;27;20544;-70
2022/03/04 05:25:00;;;;;;;7.35;5.63;;;;;;;-0.77;87.20;101737.91;5086494;28;20058;-70
2022/03/04 05:27:27;;;;;;;6.30;5.00;;;;;;;-0.92;87.13;101743.34;5087226;28;20045;-72
2022/03/04 05:29:53;;;;;;;9.70;3.08;;;;;;;-0.94;87.68;101745.09;5085795;28;20795;-71
2022/03/04 05:32:20;;;;;;;5.05;3.47;;;;;;;-0.96;88.85;101744.28;5085752;28;20127;-73
2022/03/04 05:34:46;;;;;;;8.25;4.88;;;;;;;-0.96;88.23;101743.41;5091571;28;20040;-72
2022/03/04 05:37:13;;;;;;;8.63;4.95;;;;;;;-1.00;88.46;101747.78;5087091;28;20047;-72
2022/03/04 05:39:41;;;;;;;5.18;3.33;;;;;;;-0.96;88.41;101743.41;5099347;28;20049;-71
2022/03/04 05:42:07;;;;;;;6.18;3.70;;;;;;;-1.07;87.64;101746.19;5078343;28;20104;-71
2022/03/04 05:44:34;;;;;;;7.53;4.72;;;;;;;-1.03;88.29;101746.97;5091939;28;20063;-70
2022/03/04 05:47:01;;;;;;;12.32;4.47;;;;;;;-0.99;88.27;101759.81;5085257;28;20048;-72
2022/03/04 05:49:27;;;;;;;6.60;4.78;;;;;;;-1.08;88.34;101759.94;5095662;28;20040;-74
2022/03/04 05:51:54;;;;;;;6.22;4.53;;;;;;;-1.10;88.74;101763.44;5095087;28;20032;-74
2022/03/04 05:54:21;;;;;;;8.02;4.25;;;;;;;-1.16;89.00;101756.63;5090610;28;20044;-71
2022/03/04 05:56:49;;;;;;;12.27;5.05;;;;;;;-1.34;89.08;101756.91;5114640;27;20154;-70
2022/03/04 05:59:15;;;;;;;3.85;3.20;;;;;;;-1.29;89.64;101770.59;5104285;28;20067;-73
2022/03/04 06:01:42;;;;;;;13.93;5.80;;;;;;;-1.35;90.07;101762.94;5093867;28;20127;-71
2022/03/04 06:04:08;;;;;;;5.15;3.70;;;;;;;-1.24;89.83;101771.38;5087645;28;20039;-71
2022/03/04 06:06:35;;;;;;;6.43;3.78;;;;;;;-1.35;90.02;101760.34;5088155;28;20062;-73
2022/03/04 06:09:02;;;;;;;13.25;4.63;;;;;;;-1.39;90.25;101774.19;5091003;28;20032;-72
2022/03/04 06:11:28;;;;;;;5.63;4.43;;;;;;;-1.43;90.37;101777.66;5083074;28;20108;-70
2022/03/04 06:13:57;;;;;;;6.65;4.40;;;;;;;-1.45;90.87;101779.44;5082930;28;20039;-71
2022/03/04 06:16:23;;;;;;;7.07;3.83;;;;;;;-1.49;90.87;101779.50;5121995;27;20449;-71
2022/03/04 06:18:51;;;;;;;3.88;2.80;;;;;;;-1.38;91.00;101786.19;5083674;28;20497;-72
2022/03/04 06:21:18;;;;;;;6.82;4.50;;;;;;;-1.30;90.78;101783.47;5094475;28;20112;-71
2022/03/04 06:23:45;;;;;;;8.10;4.97;;;;;;;-1.22;91.34;101792.81;5084271;28;20028;-71
2022/03/04 06:26:12;;;;;;;6.40;4.97;;;;;;;-1.07;89.95;101787.44;5079190;28;20390;-72
2022/03/04 06:28:39;;;;;;;9.30;4.90;;;;;;;-1.11;89.99;101790.94;5085730;28;20052;-71
2022/03/04 06:31:07;;;;;;;4.82;4.30;;;;;;;-1.13;90.09;101795.28;5080997;28;20043;-73
2022/03/04 06:33:35;;;;;;;3.92;3.33;;;;;;;-1.11;90.57;101785.78;5079083;28;20040;-71
2022/03/04 06:36:05;;;;;;;5.55;4.32;;;;;;;-1.09;90.12;101794.34;5069642;28;20040;-71
2022/03/04 06:38:32;;;;;;;7.10;3.97;;;;;;;-1.10;90.76;101797.78;5070925;28;20040;-70
2022/03/04 06:41:00;;;;;;;6.07;4.78;;;;;;;-1.10;90.24;101797.78;5072240;28;20046;-72
2022/03/04 06:43:26;;;;;;;5.00;3.00;;;;;;;-1.15;90.37;101802.16;5077096;28;20044;-72
2022/03/04 06:45:53;;;;;;;7.10;4.32;;;;;;;-1.15;90.41;101797.00;5073975;28;20040;-71
2022/03/04 06:48:21;;;;;;;6.47;4.70;;;;;;;-1.14;90.16;101800.41;5068473;28;20049;-71
2022/03/04 06:50:49;;;;;;;7.43;5.05;;;;;;;-1.13;90.51;101795.28;5079894;28;20039;-71
2022/03/04 06:53:16;;;;;;;6.65;4.65;;;;;;;-0.99;89.86;101800.22;5071389;28;20051;-71
2022/03/04 06:55:43;;;;;;;9.55;4.50;;;;;;;-0.93;89.59;101800.13;5077528;28;20052;-73
2022/03/04 06:58:09;;;;;;;7.95;5.30;;;;;;;-0.87;89.54;101805.16;5084740;28;20105;-70
2022/03/04 07:00:37;;;;;;;4.68;4.15;;;;;;;-0.67;89.47;101804.81;5071004;28;20060;-70
2022/03/04 07:03:04;;;;;;;7.80;4.80;;;;;;;-0.42;88.14;101798.38;5073226;28;20056;-69
2022/03/04 07:05:32;;;;;;;8.82;4.40;;;;;;;-0.10;85.75;101798.63;5075202;28;20055;-72
2022/03/04 07:07:59;;;;;;;8.45;4.50;;;;;;;-0.03;85.13;101804.50;5087112;28;20587;-71
2022/03/04 07:10:26;;;;;;;6.90;4.85;;;;;;;0.05;84.80;101803.47;5076378;28;20075;-70
2022/03/04 07:12:53;;;;;;;6.60;3.83;;;;;;;0.16;84.56;101812.72;5073063;28;20139;-72
2022/03/04 07:15:20;;;;;;;6.05;3.20;;;;;;;0.25;83.49;101811.66;5103897;27;20139;-70
2022/03/04 07:17:47;;;;;;;7.05;5.07;;;;;;;0.34;82.93;101812.34;5070340;28;20058;-69
2022/03/04 07:22:43;;;;;;;8.15;6.10;;;;;;;1.27;79.48;101810.22;5092467;27;20385;-73
2022/03/04 07:25:12;;;;;;;6.03;4.97;;;;;;;1.79;76.96;101801.06;5092522;28;20073;-71
2022/03/04 07:27:40;;;;;;;6.47;4.13;;;;;;;2.20;74.16;101804.19;5095592;28;20043;-72
2022/03/04 07:30:08;;;;;;;5.75;5.03;;;;;;;2.80;71.50;101811.03;5106110;28;20040;-72
2022/03/04 07:32:35;;;;;;;7.40;3.60;;;;;;;4.16;67.25;101808.97;5095576;28;20048;-72
2022/03/04 07:35:03;;;;;;;8.80;4.93;;;;;;;6.90;57.75;101805.09;5095710;28;20032;-73
2022/03/04 07:37:31;;;;;;;6.43;4.65;;;;;;;7.89;51.78;101794.91;5096127;28;20044;-72
2022/03/04 07:39:59;;;;;;;10.68;6.75;;;;;;;8.82;50.20;101800.25;5096940;28;20046;-73
2022/03/04 07:42:25;;;;;;;16.23;7.38;;;;;;;9.40;47.71;101789.97;5092660;28;20036;-72
2022/03/04 07:44:52;;;;;;;11.00;6.22;;;;;;;9.64;45.44;101805.09;5086678;28;20067;-73
2022/03/04 07:47:19;;;;;;;13.43;6.20;;;;;;;11.10;43.79;101792.44;5103137;28;20081;-73
2022/03/04 07:49:45;;;;;;;11.18;5.82;;;;;;;10.88;42.53;101779.84;5097694;28;20039;-73
2022/03/04 07:52:12;;;;;;;10.35;4.75;;;;;;;11.42;42.57;101779.72;5096477;28;20059;-73
2022/03/04 07:54:39;;;;;;;12.30;5.70;;;;;;;11.41;42.11;101785.94;5089810;28;20481;-71
2022/03/04 07:57:07;;;;;;;13.80;7.40;;;;;;;11.30;41.76;101784.94;5092837;28;20052;-74
2022/03/04 07:59:34;;;;;;;11.93;7.07;;;;;;;10.22;44.46;101787.59;5090011;28;20040;-70
2022/03/04 08:02:00;;;;;;;15.15;6.85;;;;;;;10.07;44.51;101796.41;5087195;28;20646;-71
2022/03/04 08:04:27;;;;;;;14.07;6.70;;;;;;;9.17;46.41;101799.13;5087609;28;20043;-73
2022/03/04 08:06:54;;;;;;;15.82;5.50;;;;;;;8.84;47.11;101797.53;5089665;28;20572;-72
2022/03/04 08:09:21;;;;;;;11.93;6.32;;;;;;;9.13;48.01;101791.53;5099010;28;20027;-72
2022/03/04 08:11:49;;;;;;;19.58;8.90;;;;;;;9.39;46.01;101796.97;5094031;28;20067;-73
2022/03/04 08:14:17;;;;;;;16.77;7.00;;;;;;;9.99;45.06;101798.66;5093347;28;20112;-71
2022/03/04 08:16:44;;;;;;;14.13;6.50;;;;;;;10.24;43.84;101789.19;5093395;28;20047;-72
2022/03/04 08:19:11;;;;;;;10.75;6.03;;;;;;;11.43;41.44;101783.19;5086187;28;20051;-72
2022/03/04 08:21:39;;;;;;;10.93;4.75;;;;;;;11.55;41.18;101793.78;5092483;28;20044;-71
2022/03/04 08:24:07;;;;;;;14.18;6.43;;;;;;;12.40;40.09;101793.06;5086339;28;20148;-75
2022/03/04 08:26:33;;;;;;;8.15;4.80;;;;;;;13.38;35.35;101792.91;5090663;28;20040;-71
2022/03/04 08:29:00;;;;;;;7.88;5.18;;;;;;;13.12;36.35;101799.25;5091620;28;20105;-70
2022/03/04 08:31:28;;;;;;;16.20;6.28;;;;;;;11.85;37.76;101797.00;5090893;28;20044;-72
2022/03/04 08:33:56;;;;;;;10.80;6.50;;;;;;;11.69;39.09;101814.78;5071186;28;20356;-71
2022/03/04 08:36:22;;;;;;;13.07;5.60;;;;;;;11.14;39.92;101812.31;5076399;28;20071;-71
2022/03/04 08:38:49;;;;;;;10.07;5.50;;;;;;;11.72;37.79;101801.38;5075364;28;20040;-72
2022/03/04 08:41:16;;;;;;;10.38;5.85;;;;;;;11.52;39.09;101812.41;5078961;28;20040;-73
2022/03/04 08:43:42;;;;;;;13.20;6.38;;;;;;;13.95;35.25;101807.84;5076179;28;20040;-72
2022/03/04 08:46:12;;;;;;;13.15;6.10;;;;;;;13.54;36.02;101809.28;5077244;28;20077;-73
2022/03/04 08:48:40;;;;;;;10.38;5.32;;;;;;;14.07;33.65;101801.63;5071242;28;20129;-73
2022/03/04 08:51:07;;;;;;;9.77;6.22;;;;;;;13.94;34.96;101802.69;5076724;28;20047;-74
2022/03/04 08:53:34;;;;;;;13.75;7.20;;;;;;;11.91;37.03;101807.09;5076696;28;20098;-72
2022/03/04 08:56:01;;;;;;;17.67;7.35;;;;;;;13.25;35.95;101805.34;5076169;28;20040;-72
2022/03/04 08:58:28;;;;;;;15.77;7.00;;;;;;;13.77;34.84;101805.75;5078305;28;20035;-72
2022/03/04 09:00:56;;;;;;;15.55;7.18;;;;;;;14.03;34.30;101813.41;5074468;28;20093;-72
2022/03/04 09:03:23;;;;;;;13.25;7.00;;;;;;;15.10;32.57;101819.78;5079375;28;20040;-73
2022/03/04 09:05:51;;;;;;;9.98;5.70;;;;;;;13.66;33.96;101813.66;5075842;28;20050;-74
2022/03/04 09:08:17;;;;;;;14.50;6.70;;;;;;;14.00;35.22;101818.06;5076264;28;20139;-73
2022/03/04 09:10:44;;;;;;;19.65;8.50;;;;;;;14.98;32.92;101818.13;5076998;28;20238;-74
2022/03/04 09:13:10;;;;;;;19.60;7.57;;;;;;;13.18;35.01;101827.81;5075631;28;20123;-74
2022/03/04 09:15:37;;;;;;;10.18;5.72;;;;;;;12.22;37.60;101822.50;5075099;28;20127;-73
2022/03/04 09:18:04;;;;;;;13.68;6.35;;;;;;;11.88;37.84;101825.72;5077638;28;20694;-73
2022/03/04 09:20:30;;;;;;;20.73;8.00;;;;;;;12.46;37.64;101819.03;5075419;28;20044;-73
2022/03/04 09:22:58;;;;;;;15.75;6.80;;;;;;;11.76;37.80;101828.34;5074672;28;20047;-72
2022/03/04 09:25:26;;;;;;;14.70;6.93;;;;;;;11.29;39.04;101823.53;5070926;28;20138;-73
2022/03/04 09:27:54;;;;;;;14.25;7.70;;;;;;;12.10;38.54;101818.09;5070896;28;20036;-75
2022/03/04 09:30:20;;;;;;;11.13;4.88;;;;;;;11.53;39.71;101815.88;5068943;28;20511;-72
2022/03/04 09:32:47;;;;;;;16.58;7.70;;;;;;;12.10;39.74;101812.81;5071356;28;20109;-73
2022/03/04 09:35:13;;;;;;;23.75;7.15;;;;;;;12.02;37.38;101801.97;5078271;28;20380;-72
2022/03/04 09:37:40;;;;;;;14.00;7.25;;;;;;;10.82;39.64;101821.44;5074414;28;20043;-71
2022/03/04 09:40:09;;;;;;;16.23;8.20;;;;;;;10.34;42.02;101829.72;5073866;28;20067;-75
2022/03/04 09:42:36;;;;;;;19.33;7.32;;;;;;;11.53;40.93;101829.03;5075896;28;20607;-73
2022/03/04 09:45:04;;;;;;;13.82;6.93;;;;;;;11.03;40.31;101825.34;5070328;28;20135;-73
2022/03/04 09:47:31;;;;;;;13.65;8.45;;;;;;;10.92;41.69;101833.06;5073073;28;20044;-73
2022/03/04 09:49:59;;;;;;;17.95;8.57;;;;;;;10.47;41.41;101830.66;5075119;28;20459;-74
2022/03/04 09:52:26;;;;;;;19.98;9.32;;;;;;;10.28;41.40;101819.59;5075290;28;20136;-73
2022/03/04 09:54:54;;;;;;;21.00;8.60;;;;;;;10.66;42.38;101828.59;5075037;28;20032;-72
2022/03/04 09:57:22;;;;;;;14.85;7.68;;;;;;;10.59;40.82;101824.66;5076757;28;20040;-75
2022/03/04 09:59:49;;;;;;;13.80;8.00;;;;;;;10.66;42.24;101832.06;5074354;28;20093;-80
2022/03/04 10:02:16;;;;;;;12.80;7.70;;;;;;;10.66;41.17;101829.44;5075001;28;20044;-73
2022/03/04 10:04:42;;;;;;;25.02;9.18;;;;;;;10.29;42.34;101831.81;5072769;28;20101;-72
2022/03/04 10:07:10;;;;;;;16.58;8.07;;;;;;;10.10;43.09;101831.22;5074995;28;20048;-73
2022/03/04 10:09:38;;;;;;;15.57;8.55;;;;;;;10.25;42.99;101835.53;5071951;28;20036;-71
2022/03/04 10:12:07;;;;;;;15.80;6.18;;;;;;;10.47;42.41;101831.50;5074601;28;20147;-72
2022/03/04 10:14:35;;;;;;;17.92;8.30;;;;;;;10.73;42.10;101827.25;5075087;28;20055;-70
2022/03/04 10:17:05;;;;;;;16.88;8.05;;;;;;;10.45;42.12;101822.88;5073091;28;20089;-73
2022/03/04 10:19:33;;;;;;;15.13;7.65;;;;;;;10.61;42.42;101822.78;5047800;28;20134;-72
2022/03/04 10:22:02;;;;;;;14.73;7.93;;;;;;;10.43;42.38;101814.22;5077861;28;20106;-71
2022/03/04 10:24:30;;;;;;;20.30;9.82;;;;;;;10.80;42.62;101810.16;5046685;28;20607;-71
2022/03/04 10:27:02;;;;;;;15.88;7.78;;;;;;;10.99;42.61;101805.44;5038176;28;20140;-72
2022/03/04 10:29:30;;;;;;;23.50;9.98;;;;;;;11.57;41.50;101798.94;5045881;28;20072;-75
2022/03/04 10:32:13;;;;;;;17.80;9.32;;;;;;;12.21;40.45;101803.22;5043301;28;20278;-74
2022/03/04 10:34:51;;;;;;;19.08;8.57;;;;;;;12.15;39.14;101800.16;5036362;28;20132;-71
2022/03/04 10:37:20;;;;;;;17.30;8.98;;;;;;;11.45;39.86;101815.50;5027051;28;20051;-73
2022/03/04 10:40:01;;;;;;;27.42;8.70;;;;;;;11.15;40.93;101803.50;5032428;28;20053;-72
2022/03/04 10:42:56;;;;;;;19.02;8.23;;;;;;;11.13;41.94;101805.38;5029312;28;20037;-71
2022/03/04 10:45:24;;;;;;;24.58;9.15;;;;;;;11.12;40.05;101798.47;5034664;28;20057;-71
2022/03/04 10:47:55;;;;;;;16.88;8.68;;;;;;;11.17;40.43;101806.88;5031895;28;20049;-72
2022/03/04 10:50:29;;;;;;;17.35;8.18;;;;;;;11.27;38.52;101793.03;5034614;28;20041;-70
2022/03/04 10:53:01;;;;;;;7.72;4.32;;;;;;;11.20;38.86;101795.19;5030924;28;20129;-70
2022/03/04 10:55:30;;;;;;;22.02;8.32;;;;;;;11.71;38.28;101786.53;5033062;28;20044;-70
2022/03/04 10:57:57;;;;;;;16.98;8.55;;;;;;;12.17;37.04;101793.00;5032381;28;20041;-72
2022/03/04 11:00:25;;;;;;;17.00;8.98;;;;;;;12.31;37.28;101792.88;5031455;28;20045;-73
2022/03/04 11:02:53;;;;;;;16.63;8.98;;;;;;;12.30;37.23;101794.69;5030980;28;20048;-71
2022/03/04 11:05:21;;;;;;;14.75;7.88;;;;;;;12.60;37.12;101781.16;5034624;28;20126;-71
2022/03/04 11:07:47;;;;;;;20.23;9.52;;;;;;;12.95;36.24;101783.81;5027414;28;20045;-71
2022/03/04 11:10:14;;;;;;;16.65;8.25;;;;;;;12.84;35.39;101786.34;5031154;28;20037;-72
2022/03/04 11:12:42;;;;;;;17.17;8.07;;;;;;;12.40;35.95;101782.53;5031811;28;20045;-75
2022/03/04 11:15:10;;;;;;;18.15;8.27;;;;;;;12.21;37.40;101789.19;5030794;28;20055;-72
2022/03/04 11:17:38;;;;;;;18.15;8.93;;;;;;;12.11;37.28;101790.78;5047985;28;20049;-72
2022/03/04 11:20:08;;;;;;;14.25;8.05;;;;;;;12.60;37.10;101781.97;5027975;28;20120;-71
2022/03/04 11:22:35;;;;;;;17.35;9.20;;;;;;;12.95;36.19;101773.25;5032774;28;20057;-72
2022/03/04 11:25:03;;;;;;;16.55;8.90;;;;;;;13.27;37.44;101771.75;5031537;28;20095;-72
2022/03/04 11:27:32;;;;;;;17.15;7.95;;;;;;;13.44;34.57;101762.59;5032807;28;20122;-72
2022/03/04 11:29:59;;;;;;;12.68;6.82;;;;;;;12.88;33.81;101771.19;5032702;28;20041;-72